Time;durP1;ratioP1;P1;durP2;ratioP2;P2;SDS_P1;SDS_P2;PMS_P1;PMS_P2;Temp;Humidity;BMP_temperature;BMP_pressure;BME280_temperature;BME280_humidity;BME280_pressure;Samples;Min_cycle;Max_cycle;Signal;HPM_P1;HPM_P2
2021/10/05 00:00:11;;;;;;;6.15;1.80;;;;;;;12.54;80.09;100969.91;5032824;28;20025;-43
2021/10/05 00:02:37;;;;;;;9.85;2.20;;;;;;;12.46;80.17;100971.69;5032376;28;20041;-42
2021/10/05 00:05:03;;;;;;;6.65;2.25;;;;;;;12.42;80.04;100962.28;5031468;28;20025;-43
2021/10/05 00:07:29;;;;;;;10.23;1.70;;;;;;;12.39;80.25;100949.16;5031468;28;20392;-43
2021/10/05 00:09:54;;;;;;;8.32;2.20;;;;;;;12.38;79.72;100946.69;5032425;28;20033;-44
2021/10/05 00:12:19;;;;;;;11.18;2.15;;;;;;;12.34;80.41;100946.22;5030826;28;20029;-44
2021/10/05 00:14:45;;;;;;;8.65;1.95;;;;;;;12.33;80.28;100938.31;5032435;28;20091;-45
2021/10/05 00:17:10;;;;;;;6.70;2.10;;;;;;;12.27;80.03;100943.44;5032541;28;20044;-43
2021/10/05 00:19:36;;;;;;;5.93;1.90;;;;;;;12.20;80.46;100934.44;5032856;28;20021;-42
2021/10/05 00:22:02;;;;;;;15.00;1.92;;;;;;;12.12;80.17;100931.84;5032348;28;20057;-43
2021/10/05 00:24:28;;;;;;;6.38;2.08;;;;;;;12.12;80.49;100925.63;5031201;28;20041;-42
2021/10/05 00:26:53;;;;;;;10.02;2.00;;;;;;;12.01;80.50;100924.25;5032572;28;20022;-42
2021/10/05 00:29:19;;;;;;;9.25;1.83;;;;;;;12.03;80.48;100919.50;5032254;28;20052;-43
2021/10/05 00:31:44;;;;;;;12.38;2.45;;;;;;;11.97;80.65;100923.78;5032100;28;20026;-43
2021/10/05 00:34:10;;;;;;;10.13;2.00;;;;;;;11.94;80.63;100928.72;5014795;28;20091;-43
2021/10/05 00:36:35;;;;;;;12.18;1.95;;;;;;;11.91;80.94;100932.66;5032620;28;20040;-43
2021/10/05 00:39:00;;;;;;;8.35;1.77;;;;;;;11.87;80.47;100920.53;5031720;28;20022;-42
2021/10/05 00:41:26;;;;;;;7.93;1.80;;;;;;;11.88;80.65;100913.31;5032209;28;20367;-43
2021/10/05 00:43:51;;;;;;;10.70;1.67;;;;;;;11.85;80.49;100917.19;5032741;28;20380;-42
2021/10/05 00:46:21;;;;;;;9.00;1.65;;;;;;;11.85;80.10;100914.50;5035087;28;20044;-43
2021/10/05 00:48:47;;;;;;;10.48;2.33;;;;;;;11.77;80.34;100923.53;5036563;28;20507;-43
2021/10/05 00:51:12;;;;;;;6.65;1.85;;;;;;;11.77;80.54;100918.13;5036254;28;20423;-43
2021/10/05 00:53:39;;;;;;;10.63;1.85;;;;;;;11.74;80.54;100920.34;5035181;28;20032;-43
2021/10/05 00:56:04;;;;;;;14.02;1.80;;;;;;;11.75;80.08;100919.34;5036150;28;20033;-42
2021/10/05 00:58:29;;;;;;;8.82;1.85;;;;;;;11.77;80.00;100911.88;5036148;28;20032;-43
2021/10/05 01:00:55;;;;;;;4.72;1.70;;;;;;;11.68;80.44;100913.03;5035873;28;20099;-43
2021/10/05 01:03:20;;;;;;;14.00;2.00;;;;;;;11.68;80.69;100907.63;5036108;28;20037;-43
2021/10/05 01:05:45;;;;;;;7.07;2.22;;;;;;;11.63;80.68;100911.72;5035946;28;20056;-44
2021/10/05 01:08:17;;;;;;;4.75;1.33;;;;;;;11.60;80.75;100906.69;5036106;28;20476;-43
2021/10/05 01:10:43;;;;;;;5.97;1.98;;;;;;;11.58;80.39;100908.75;5035604;28;20025;-41
2021/10/05 01:13:08;;;;;;;4.85;1.60;;;;;;;11.57;80.47;100895.47;5035890;28;20057;-43
2021/10/05 01:15:34;;;;;;;9.73;1.77;;;;;;;11.57;80.57;100896.28;5034589;28;20117;-43
2021/10/05 01:17:59;;;;;;;7.18;2.13;;;;;;;11.55;80.41;100895.63;5035822;28;20049;-43
2021/10/05 01:20:24;;;;;;;5.03;1.48;;;;;;;11.52;80.78;100890.63;5035646;28;20041;-44
2021/10/05 01:22:50;;;;;;;6.95;1.77;;;;;;;11.53;80.15;100884.22;5034281;28;20040;-42
2021/10/05 01:25:16;;;;;;;9.90;1.55;;;;;;;11.56;79.83;100877.63;5034515;28;20021;-43
2021/10/05 01:27:52;;;;;;;10.73;1.70;;;;;;;11.55;79.78;100868.69;5035513;28;20438;-43
2021/10/05 01:30:18;;;;;;;7.20;1.80;;;;;;;11.50;79.83;100865.72;5035391;28;20022;-42
2021/10/05 01:32:44;;;;;;;8.40;1.80;;;;;;;11.48;79.87;100858.84;5036230;28;20040;-42
2021/10/05 01:35:10;;;;;;;7.07;1.35;;;;;;;11.47;79.91;100859.88;5048988;28;20033;-42
2021/10/05 01:37:36;;;;;;;5.45;1.67;;;;;;;11.47;80.20;100873.34;5037649;28;20022;-43
2021/10/05 01:40:04;;;;;;;5.53;1.75;;;;;;;11.45;80.21;100870.00;5034265;28;20441;-43
2021/10/05 01:42:29;;;;;;;5.63;1.50;;;;;;;11.40;80.25;100867.84;5033995;28;20072;-44
2021/10/05 01:44:55;;;;;;;4.18;1.10;;;;;;;11.42;79.84;100868.50;5035666;28;20092;-43
2021/10/05 01:47:21;;;;;;;6.40;1.70;;;;;;;11.36;79.80;100871.97;5034778;28;20026;-42
2021/10/05 01:49:46;;;;;;;5.38;2.00;;;;;;;11.33;79.92;100861.56;5035344;28;20044;-42
2021/10/05 01:52:11;;;;;;;11.45;1.90;;;;;;;11.34;79.79;100863.22;5034420;28;20056;-42
2021/10/05 01:54:37;;;;;;;7.72;1.63;;;;;;;11.31;80.16;100850.97;5035106;28;20083;-42
2021/10/05 01:57:02;;;;;;;9.48;1.52;;;;;;;11.30;79.96;100846.59;5034088;28;20087;-41
2021/10/05 01:59:28;;;;;;;5.32;1.00;;;;;;;11.32;79.69;100832.94;5035269;28;20280;-42
2021/10/05 02:01:53;;;;;;;4.68;1.33;;;;;;;11.28;79.88;100837.03;5033746;28;20025;-42
2021/10/05 02:04:19;;;;;;;6.38;1.45;;;;;;;11.27;80.06;100828.13;5034639;28;20033;-43
2021/10/05 02:06:45;;;;;;;5.30;1.42;;;;;;;11.23;80.45;100823.28;5034844;28;20415;-43
2021/10/05 02:09:12;;;;;;;6.28;1.70;;;;;;;11.24;80.01;100814.16;5034864;28;20032;-42
2021/10/05 02:11:37;;;;;;;5.75;1.35;;;;;;;11.23;79.73;100801.72;5034972;28;20048;-42
2021/10/05 02:14:04;;;;;;;9.13;1.67;;;;;;;11.26;79.89;100799.50;5033749;28;20460;-42
2021/10/05 02:16:30;;;;;;;4.88;1.08;;;;;;;11.21;80.10;100794.66;5034975;28;20041;-44
2021/10/05 02:18:56;;;;;;;8.32;1.60;;;;;;;11.18;80.29;100800.41;5034584;28;20033;-43
2021/10/05 02:21:22;;;;;;;13.80;1.55;;;;;;;11.18;80.30;100795.03;5034696;28;20035;-43
2021/10/05 02:26:32;;;;;;;7.78;1.25;;;;;;;11.26;79.75;100777.94;5034782;28;20060;-43
2021/10/05 02:28:57;;;;;;;4.78;1.48;;;;;;;11.26;79.79;100774.41;5034239;28;20054;-42
2021/10/05 02:31:23;;;;;;;6.32;1.33;;;;;;;11.28;79.48;100758.91;5034627;28;20079;-43
2021/10/05 02:33:48;;;;;;;10.40;2.00;;;;;;;11.29;79.71;100757.88;5034532;28;20369;-43
2021/10/05 02:36:13;;;;;;;4.22;1.13;;;;;;;11.28;79.68;100750.81;5034653;28;20017;-42
2021/10/05 02:38:39;;;;;;;6.93;1.42;;;;;;;11.22;79.68;100752.41;5034034;28;20427;-42
2021/10/05 02:41:04;;;;;;;5.95;1.38;;;;;;;11.22;79.93;100749.72;5033193;28;20116;-42
2021/10/05 02:43:30;;;;;;;10.43;1.48;;;;;;;11.23;79.92;100737.91;5034387;28;20040;-42
2021/10/05 02:45:56;;;;;;;10.05;1.42;;;;;;;11.21;79.99;100729.16;5034305;28;20025;-43
2021/10/05 02:48:21;;;;;;;8.32;1.30;;;;;;;11.19;80.22;100731.25;5034269;28;20436;-42
2021/10/05 02:50:46;;;;;;;6.55;1.38;;;;;;;11.23;79.89;100720.91;5033845;28;20029;-43
2021/10/05 02:53:12;;;;;;;6.32;1.35;;;;;;;11.25;80.04;100717.00;5034140;28;20017;-43
2021/10/05 02:55:38;;;;;;;5.32;1.40;;;;;;;11.21;79.72;100716.53;5032886;28;20025;-42
2021/10/05 02:58:03;;;;;;;5.40;1.30;;;;;;;11.20;80.06;100711.34;5033750;28;20090;-43
2021/10/05 03:00:28;;;;;;;7.13;1.50;;;;;;;11.21;79.99;100718.41;5033125;28;20498;-44
2021/10/05 03:02:54;;;;;;;5.80;1.33;;;;;;;11.21;79.60;100713.84;5033458;28;20032;-43
2021/10/05 03:05:19;;;;;;;4.05;1.48;;;;;;;11.24;79.43;100704.53;5033843;28;20022;-43
2021/10/05 03:07:45;;;;;;;9.63;1.70;;;;;;;11.24;79.51;100690.25;5032502;28;20029;-43
2021/10/05 03:10:10;;;;;;;8.93;1.63;;;;;;;11.21;79.68;100680.69;5033593;28;20072;-43
2021/10/05 03:12:35;;;;;;;5.88;1.58;;;;;;;11.20;79.38;100685.25;5032567;28;20061;-44
2021/10/05 03:15:01;;;;;;;5.72;1.55;;;;;;;11.28;79.15;100680.78;5033685;28;20017;-43
2021/10/05 03:17:26;;;;;;;5.43;1.50;;;;;;;11.22;79.27;100676.97;5032244;28;20107;-43
2021/10/05 03:19:51;;;;;;;7.72;1.77;;;;;;;11.18;79.27;100670.28;5033530;28;20044;-43
2021/10/05 03:22:17;;;;;;;5.50;1.48;;;;;;;11.14;79.42;100669.84;5033450;28;20041;-44
2021/10/05 03:24:42;;;;;;;7.22;1.40;;;;;;;11.13;79.33;100657.38;5033189;28;20411;-42
2021/10/05 03:27:10;;;;;;;6.93;1.60;;;;;;;11.14;79.36;100661.78;5033206;28;20041;-41
2021/10/05 03:29:36;;;;;;;8.73;2.05;;;;;;;11.11;79.59;100659.47;5033679;28;20120;-42
2021/10/05 03:32:01;;;;;;;4.55;1.25;;;;;;;11.10;79.27;100649.69;5033224;28;20446;-43
2021/10/05 03:34:26;;;;;;;4.85;2.15;;;;;;;11.13;79.16;100656.56;5032177;28;20033;-43
2021/10/05 03:36:51;;;;;;;6.63;1.50;;;;;;;11.13;79.22;100648.47;5033063;28;20112;-41
2021/10/05 03:39:17;;;;;;;13.77;1.90;;;;;;;11.15;78.95;100638.34;5032987;28;20026;-43
2021/10/05 03:41:42;;;;;;;6.95;1.17;;;;;;;11.16;78.86;100640.88;5032056;28;20032;-44
2021/10/05 03:44:07;;;;;;;8.98;1.67;;;;;;;11.15;79.07;100631.09;5033136;28;20021;-43
2021/10/05 03:46:33;;;;;;;4.75;1.25;;;;;;;11.13;78.95;100635.84;5032880;28;20113;-43
2021/10/05 03:49:00;;;;;;;8.00;1.75;;;;;;;11.14;79.02;100629.44;5032750;28;20033;-44
2021/10/05 03:51:25;;;;;;;8.45;1.27;;;;;;;11.16;78.96;100623.84;5031785;28;20053;-44
2021/10/05 03:53:51;;;;;;;6.28;1.30;;;;;;;11.20;78.60;100617.91;5033083;28;20507;-42
2021/10/05 03:56:16;;;;;;;10.75;1.63;;;;;;;11.20;78.56;100615.19;5032633;28;20033;-44
2021/10/05 03:58:41;;;;;;;3.75;1.33;;;;;;;11.19;79.14;100608.16;5032518;28;20449;-43
2021/10/05 04:01:07;;;;;;;4.45;1.27;;;;;;;11.20;78.59;100601.72;5031826;28;20089;-43
2021/10/05 04:03:32;;;;;;;4.43;1.38;;;;;;;11.26;78.38;100596.59;5031549;28;20029;-43
2021/10/05 04:05:58;;;;;;;8.43;1.35;;;;;;;11.24;78.74;100595.97;5032735;28;20030;-43
2021/10/05 04:08:23;;;;;;;5.95;1.40;;;;;;;11.24;78.37;100595.97;5032561;28;20033;-43
2021/10/05 04:10:48;;;;;;;13.00;1.90;;;;;;;11.21;78.81;100594.47;5032814;28;20052;-43
2021/10/05 04:13:15;;;;;;;2.38;1.20;;;;;;;11.21;78.91;100579.16;5032658;28;20038;-43
2021/10/05 04:15:41;;;;;;;10.07;1.90;;;;;;;11.23;78.79;100580.84;5032592;28;20022;-43
2021/10/05 04:18:06;;;;;;;4.70;1.15;;;;;;;11.20;78.86;100585.56;5031868;28;20503;-43
2021/10/05 04:20:31;;;;;;;8.02;1.23;;;;;;;11.23;78.89;100583.53;5031027;28;20174;-42
2021/10/05 04:22:57;;;;;;;7.85;1.80;;;;;;;11.21;78.96;100584.53;5031437;28;20017;-43
2021/10/05 04:25:22;;;;;;;6.95;1.42;;;;;;;11.21;78.86;100584.53;5032224;28;20514;-43
2021/10/05 04:27:48;;;;;;;5.93;1.45;;;;;;;11.16;78.92;100570.84;5032120;28;20025;-43
2021/10/05 04:30:14;;;;;;;5.25;1.88;;;;;;;11.15;79.29;100574.53;5032028;28;20061;-43
2021/10/05 04:32:40;;;;;;;5.65;1.40;;;;;;;11.14;79.26;100577.44;5033564;28;20126;-43
2021/10/05 04:35:06;;;;;;;4.75;1.73;;;;;;;11.11;79.40;100570.59;5034094;28;20029;-44
2021/10/05 04:37:32;;;;;;;5.82;1.60;;;;;;;11.24;78.78;100563.63;5031791;28;20029;-43
2021/10/05 04:39:57;;;;;;;3.83;1.15;;;;;;;11.28;78.68;100564.94;5031300;28;20103;-43
2021/10/05 04:42:24;;;;;;;6.97;1.70;;;;;;;11.30;78.60;100565.56;5031684;28;20040;-43
2021/10/05 04:44:49;;;;;;;5.95;1.45;;;;;;;11.27;79.00;100558.72;5032057;28;20040;-43
2021/10/05 04:47:15;;;;;;;6.22;1.77;;;;;;;11.24;79.17;100552.84;5032014;28;20029;-43
2021/10/05 04:49:41;;;;;;;6.40;1.23;;;;;;;11.24;79.15;100560.94;5032047;28;20135;-42
2021/10/05 04:52:06;;;;;;;4.97;1.10;;;;;;;11.24;79.40;100550.16;5031692;28;20060;-43
2021/10/05 04:54:32;;;;;;;4.72;1.30;;;;;;;11.23;79.41;100551.19;5031843;28;20124;-43
2021/10/05 04:56:58;;;;;;;5.47;1.30;;;;;;;11.16;79.62;100557.38;5031964;28;20033;-43
2021/10/05 04:59:23;;;;;;;4.53;2.10;;;;;;;11.16;79.69;100553.81;5032014;28;20105;-43
2021/10/05 05:01:48;;;;;;;4.22;1.30;;;;;;;11.20;79.47;100553.25;5032143;28;20026;-42
2021/10/05 05:04:16;;;;;;;6.32;1.50;;;;;;;11.12;79.96;100548.00;5031932;28;20036;-43
2021/10/05 05:06:41;;;;;;;3.15;1.38;;;;;;;11.13;79.95;100544.25;5031874;28;20086;-43
2021/10/05 05:09:06;;;;;;;4.82;1.90;;;;;;;11.11;80.13;100542.78;5031775;28;20509;-44
2021/10/05 05:11:32;;;;;;;4.80;1.55;;;;;;;11.12;80.06;100529.16;5031900;28;20028;-44
2021/10/05 05:14:04;;;;;;;6.30;1.60;;;;;;;11.19;79.84;100531.91;5031877;28;20392;-44
2021/10/05 05:16:29;;;;;;;10.52;1.25;;;;;;;11.16;79.96;100527.75;5031507;28;20057;-42
2021/10/05 05:18:55;;;;;;;4.45;1.13;;;;;;;11.15;80.22;100519.84;5031444;28;20447;-43
2021/10/05 05:21:20;;;;;;;8.88;1.60;;;;;;;11.13;80.31;100511.94;5030490;28;20044;-43
2021/10/05 05:23:46;;;;;;;6.05;1.70;;;;;;;11.15;80.37;100504.50;5031277;28;20101;-45
2021/10/05 05:26:12;;;;;;;15.88;2.75;;;;;;;11.13;80.33;100506.56;5031830;28;20076;-44
2021/10/05 05:28:37;;;;;;;9.63;1.90;;;;;;;11.09;80.60;100508.00;5031774;28;20060;-44
2021/10/05 05:31:02;;;;;;;10.35;1.83;;;;;;;11.10;80.77;100498.88;5030627;28;20070;-44
2021/10/05 05:33:28;;;;;;;31.83;2.97;;;;;;;11.11;80.44;100492.47;5035912;28;20478;-42
2021/10/05 05:35:53;;;;;;;9.38;1.75;;;;;;;11.11;80.59;100492.47;5044629;28;20030;-42
2021/10/05 05:38:21;;;;;;;5.68;1.60;;;;;;;11.11;80.69;100483.53;5034249;28;20082;-42
2021/10/05 05:40:47;;;;;;;6.13;1.50;;;;;;;11.07;81.01;100485.78;5034934;28;20432;-44
2021/10/05 05:43:13;;;;;;;9.23;1.70;;;;;;;11.05;81.10;100489.72;5018912;28;21119;-42
2021/10/05 05:45:38;;;;;;;9.82;1.60;;;;;;;11.09;80.89;100489.13;5030014;28;20034;-42
2021/10/05 05:48:04;;;;;;;29.80;4.15;;;;;;;11.09;80.77;100481.06;5018295;28;20032;-43
2021/10/05 05:50:29;;;;;;;10.65;1.35;;;;;;;11.11;80.71;100487.09;5034421;28;20026;-44
2021/10/05 05:52:55;;;;;;;6.18;1.70;;;;;;;11.07;80.84;100485.78;5034482;28;20029;-43
2021/10/05 05:55:20;;;;;;;9.10;2.13;;;;;;;11.07;81.05;100480.41;5034627;28;20032;-43
2021/10/05 05:57:48;;;;;;;7.03;1.23;;;;;;;11.01;81.03;100480.38;5033594;28;20021;-42
2021/10/05 06:00:14;;;;;;;5.22;1.58;;;;;;;11.01;81.22;100472.28;5033095;28;20454;-42
2021/10/05 06:02:39;;;;;;;4.80;1.73;;;;;;;11.03;80.95;100468.34;5034293;28;20057;-42
2021/10/05 06:05:05;;;;;;;7.72;1.60;;;;;;;11.01;81.06;100470.44;5033996;28;20112;-43
2021/10/05 06:07:30;;;;;;;8.27;1.40;;;;;;;10.95;81.11;100465.78;5034765;28;20041;-43
2021/10/05 06:09:56;;;;;;;10.32;1.42;;;;;;;10.94;81.23;100464.13;5033951;28;20468;-43
2021/10/05 06:12:22;;;;;;;7.47;1.67;;;;;;;10.94;81.21;100464.13;5032755;28;20432;-42
2021/10/05 06:14:47;;;;;;;3.08;1.25;;;;;;;10.98;81.16;100460.03;5038956;28;20132;-43
2021/10/05 06:17:12;;;;;;;4.82;1.33;;;;;;;10.98;81.02;100451.97;5033924;28;20111;-44
2021/10/05 06:19:38;;;;;;;5.28;1.13;;;;;;;10.96;81.29;100451.31;5032944;28;20025;-43
2021/10/05 06:22:04;;;;;;;4.00;1.30;;;;;;;11.00;80.92;100452.59;5033426;28;20040;-43
2021/10/05 06:24:29;;;;;;;3.92;1.50;;;;;;;10.99;81.03;100451.75;5032968;28;20044;-42
2021/10/05 06:26:55;;;;;;;6.00;1.58;;;;;;;11.04;80.89;100456.56;5031253;28;20033;-42
2021/10/05 06:29:20;;;;;;;6.15;1.45;;;;;;;11.32;79.75;100442.25;5030674;28;20516;-42
2021/10/05 06:31:46;;;;;;;2.97;1.20;;;;;;;11.35;79.72;100444.59;5033622;28;20018;-42
2021/10/05 06:34:11;;;;;;;12.32;1.42;;;;;;;11.41;79.48;100435.69;5033053;28;20037;-44
2021/10/05 06:36:36;;;;;;;7.47;1.10;;;;;;;11.42;79.26;100435.50;5031596;28;20083;-43
2021/10/05 06:39:02;;;;;;;4.57;1.30;;;;;;;11.39;79.38;100435.06;5032983;28;20167;-42
2021/10/05 06:41:28;;;;;;;5.32;2.13;;;;;;;11.38;79.61;100428.84;5031628;28;20123;-42
2021/10/05 06:43:53;;;;;;;7.90;1.60;;;;;;;11.41;79.92;100419.53;5029271;28;20533;-43
2021/10/05 06:46:18;;;;;;;7.03;1.40;;;;;;;11.50;79.40;100439.91;5029974;28;20088;-42
2021/10/05 06:48:44;;;;;;;9.68;1.52;;;;;;;11.58;79.12;100428.13;5027524;28;20080;-41
2021/10/05 06:51:09;;;;;;;4.07;1.17;;;;;;;11.55;79.42;100415.88;5032697;28;20025;-42
2021/10/05 06:53:35;;;;;;;4.68;1.30;;;;;;;11.61;79.16;100411.56;5033848;28;20037;-42
2021/10/05 06:56:00;;;;;;;5.10;1.42;;;;;;;11.59;79.14;100409.06;5034030;28;20071;-40
2021/10/05 06:58:25;;;;;;;5.30;1.40;;;;;;;11.65;79.56;100410.97;5033464;28;20060;-42
2021/10/05 07:00:51;;;;;;;3.05;1.33;;;;;;;11.77;78.96;100408.53;5032370;28;20025;-42
2021/10/05 07:03:17;;;;;;;8.07;1.50;;;;;;;11.80;79.01;100405.44;5033311;28;20380;-43
2021/10/05 07:05:44;;;;;;;5.68;1.33;;;;;;;11.80;78.80;100399.22;5032378;28;20028;-42
2021/10/05 07:08:09;;;;;;;4.93;1.55;;;;;;;11.91;78.64;100393.28;5034041;28;20488;-42
2021/10/05 07:10:37;;;;;;;6.43;1.30;;;;;;;12.01;78.41;100385.66;5032970;28;20057;-42
2021/10/05 07:13:03;;;;;;;8.90;1.73;;;;;;;12.06;78.41;100382.34;5033547;28;20103;-42
2021/10/05 07:15:28;;;;;;;4.80;1.30;;;;;;;12.08;78.59;100369.47;5032924;28;20047;-43
2021/10/05 07:17:54;;;;;;;4.97;1.10;;;;;;;12.17;78.21;100370.13;5033159;28;20018;-42
2021/10/05 07:20:19;;;;;;;8.02;1.52;;;;;;;12.22;78.23;100373.06;5033407;28;20053;-43
2021/10/05 07:22:45;;;;;;;3.95;1.38;;;;;;;12.40;77.22;100375.13;5032892;28;20116;-41
2021/10/05 07:25:10;;;;;;;6.18;1.00;;;;;;;12.65;76.59;100368.09;5032696;28;20037;-42
2021/10/05 07:27:36;;;;;;;3.78;1.20;;;;;;;13.25;74.29;100370.78;5031950;28;20029;-43
2021/10/05 07:30:05;;;;;;;4.60;1.30;;;;;;;14.03;71.97;100356.34;5033384;28;20037;-43
2021/10/05 07:32:32;;;;;;;5.55;1.25;;;;;;;14.90;68.44;100359.28;5033121;28;20026;-42
2021/10/05 07:34:58;;;;;;;6.03;1.60;;;;;;;15.37;66.42;100357.78;5041388;28;20019;-44
2021/10/05 07:37:23;;;;;;;5.22;1.38;;;;;;;15.87;64.78;100345.13;5041533;28;20428;-43
2021/10/05 07:39:48;;;;;;;4.22;1.15;;;;;;;15.97;64.23;100348.13;5032541;28;20383;-43
2021/10/05 07:42:14;;;;;;;6.47;1.30;;;;;;;15.75;64.59;100339.66;5033092;28;20087;-43
2021/10/05 07:44:40;;;;;;;5.28;1.23;;;;;;;16.56;62.12;100332.84;5031007;28;20037;-43
2021/10/05 07:47:05;;;;;;;7.47;1.30;;;;;;;16.72;61.63;100331.31;5036135;28;20083;-43
2021/10/05 07:49:33;;;;;;;5.85;1.42;;;;;;;16.42;62.36;100321.34;5052178;28;20464;-43
2021/10/05 07:51:59;;;;;;;5.82;1.48;;;;;;;16.57;61.92;100309.22;5045302;28;20455;-43
2021/10/05 07:54:24;;;;;;;4.75;1.33;;;;;;;16.89;61.02;100313.28;5036284;28;20029;-42
2021/10/05 07:56:50;;;;;;;6.53;1.65;;;;;;;16.68;61.77;100311.09;5030512;28;20472;-43
2021/10/05 07:59:15;;;;;;;3.50;1.20;;;;;;;17.56;59.51;100298.38;5032540;28;20034;-43
2021/10/05 08:01:40;;;;;;;4.75;1.50;;;;;;;18.10;57.79;100300.81;5036009;28;20045;-44
2021/10/05 08:04:06;;;;;;;5.35;1.52;;;;;;;17.74;58.41;100294.66;5032950;28;20033;-43
2021/10/05 08:06:32;;;;;;;6.45;1.27;;;;;;;17.78;58.52;100279.50;5039044;28;20041;-45
2021/10/05 08:08:57;;;;;;;9.27;1.48;;;;;;;17.99;57.57;100275.28;5032636;28;20043;-43
2021/10/05 08:11:23;;;;;;;6.18;2.60;;;;;;;17.16;60.04;100268.44;5030261;28;20021;-42
2021/10/05 08:13:51;;;;;;;7.10;1.60;;;;;;;17.45;59.25;100263.88;5012548;28;20025;-42
2021/10/05 08:16:20;;;;;;;11.68;1.52;;;;;;;17.76;58.27;100260.69;5031504;28;20036;-45
2021/10/05 08:18:45;;;;;;;8.68;1.52;;;;;;;17.72;58.53;100259.53;5032638;28;20472;-42
2021/10/05 08:21:16;;;;;;;6.15;1.10;;;;;;;17.35;59.17;100248.16;5032543;28;20112;-46
2021/10/05 08:23:41;;;;;;;4.68;1.17;;;;;;;16.55;61.85;100262.44;5032427;28;20128;-43
2021/10/05 08:26:07;;;;;;;7.55;1.30;;;;;;;15.58;65.22;100258.03;5030829;28;20116;-42
2021/10/05 08:28:32;;;;;;;6.10;1.50;;;;;;;14.69;67.86;100263.84;5031832;28;20042;-42
2021/10/05 08:30:57;;;;;;;9.18;1.70;;;;;;;14.59;69.05;100268.13;5030922;28;20028;-42
2021/10/05 08:33:23;;;;;;;4.97;1.30;;;;;;;14.36;69.58;100255.16;5033396;28;20025;-43
2021/10/05 08:35:48;;;;;;;8.40;1.40;;;;;;;14.38;69.94;100253.91;5042647;28;20088;-42
2021/10/05 08:38:13;;;;;;;7.25;1.63;;;;;;;14.19;70.57;100247.59;5032278;28;20034;-41
2021/10/05 08:40:39;;;;;;;8.57;1.33;;;;;;;14.00;70.90;100243.97;5031950;28;20075;-42
2021/10/05 08:43:04;;;;;;;13.60;1.77;;;;;;;13.99;71.05;100241.50;5031999;28;20475;-43
2021/10/05 08:45:31;;;;;;;5.55;1.38;;;;;;;14.04;71.70;100244.38;5030254;28;20029;-44
2021/10/05 08:47:56;;;;;;;3.45;1.17;;;;;;;14.02;71.34;100243.78;5031906;28;20058;-42
2021/10/05 08:50:22;;;;;;;4.55;1.20;;;;;;;13.97;71.72;100228.19;5031275;28;20025;-42
2021/10/05 08:52:47;;;;;;;7.57;1.58;;;;;;;13.95;72.21;100232.97;5036133;28;20071;-43
2021/10/05 08:55:13;;;;;;;5.05;1.50;;;;;;;13.99;72.07;100227.97;5043760;28;20464;-43
2021/10/05 08:57:38;;;;;;;6.85;1.55;;;;;;;14.07;71.75;100227.72;5031889;28;20522;-43
2021/10/05 09:00:05;;;;;;;5.88;1.33;;;;;;;14.14;71.71;100228.50;5032122;28;20036;-42
2021/10/05 09:02:50;;;;;;;7.93;1.83;;;;;;;14.04;71.98;100228.16;5032263;28;20037;-43
2021/10/05 09:05:17;;;;;;;7.25;1.40;;;;;;;14.03;72.16;100218.34;5033395;28;20030;-44
2021/10/05 09:07:45;;;;;;;6.10;1.35;;;;;;;14.09;71.98;100220.22;5035597;28;20068;-43
2021/10/05 09:10:11;;;;;;;;;;;;;;;13.99;72.30;100212.56;5036389;28;20036;-42
2021/10/05 09:12:36;;;;;;;8.85;1.65;;;;;;;13.86;72.37;100228.06;5035291;28;19958;-44
2021/10/05 09:15:06;;;;;;;9.77;1.55;;;;;;;13.81;73.10;100209.78;5036104;28;20431;-43
2021/10/05 09:17:31;;;;;;;6.30;1.23;;;;;;;13.77;73.26;100222.06;5044754;28;20068;-43
2021/10/05 09:19:58;;;;;;;7.03;1.60;;;;;;;13.89;73.06;100214.09;5039536;28;20425;-43
2021/10/05 09:22:27;;;;;;;10.52;1.60;;;;;;;14.07;72.72;100208.75;5039131;28;20033;-42
2021/10/05 09:24:55;;;;;;;11.75;1.77;;;;;;;14.08;72.82;100207.69;5035200;28;20077;-44
2021/10/05 09:27:21;;;;;;;6.05;1.30;;;;;;;14.14;72.91;100204.13;5035876;28;20501;-43
2021/10/05 09:29:49;;;;;;;11.50;1.45;;;;;;;14.14;72.74;100206.00;5034305;28;20143;-44
2021/10/05 09:32:17;;;;;;;4.13;1.17;;;;;;;14.01;72.81;100199.66;5034200;28;20036;-45
2021/10/05 09:34:55;;;;;;;4.78;1.40;;;;;;;14.06;73.06;100201.72;5033826;28;20104;-44
2021/10/05 09:37:27;;;;;;;8.35;1.58;;;;;;;14.12;73.09;100189.16;5035427;28;20017;-44
2021/10/05 09:40:10;;;;;;;7.70;1.45;;;;;;;14.26;71.69;100193.41;5035494;28;20365;-42
2021/10/05 09:42:44;;;;;;;12.45;1.50;;;;;;;14.33;71.97;100196.06;5034090;28;20087;-43
2021/10/05 09:45:14;;;;;;;11.70;1.80;;;;;;;14.52;72.33;100196.91;5033422;28;20017;-44
2021/10/05 09:47:40;;;;;;;8.38;1.80;;;;;;;14.50;71.80;100197.94;5035283;28;20057;-44
2021/10/05 09:50:14;;;;;;;5.47;1.52;;;;;;;14.41;71.65;100180.34;5034352;28;20056;-44
2021/10/05 09:52:47;;;;;;;2.83;1.40;;;;;;;14.48;72.04;100175.72;5033785;28;20033;-44
2021/10/05 09:55:14;;;;;;;9.27;1.35;;;;;;;14.47;72.07;100184.03;5033603;28;20033;-43
2021/10/05 09:57:39;;;;;;;4.45;1.23;;;;;;;14.45;72.24;100178.84;5034701;28;20570;-44
2021/10/05 10:00:07;;;;;;;6.32;1.38;;;;;;;14.40;72.42;100167.88;5034096;28;20033;-43
2021/10/05 10:02:35;;;;;;;7.53;1.65;;;;;;;14.38;72.47;100182.69;5031518;28;20472;-44
2021/10/05 10:05:01;;;;;;;3.45;1.25;;;;;;;14.26;72.56;100167.16;5034685;28;20152;-43
2021/10/05 10:07:26;;;;;;;7.22;1.30;;;;;;;14.25;72.94;100173.63;5033722;28;20499;-43
2021/10/05 10:09:52;;;;;;;4.43;1.13;;;;;;;14.26;72.75;100166.34;5034633;28;20595;-43
2021/10/05 10:12:17;;;;;;;10.43;1.90;;;;;;;14.23;72.80;100167.59;5033255;28;20060;-44
2021/10/05 10:14:43;;;;;;;7.05;1.25;;;;;;;14.31;73.24;100154.84;5034759;28;20114;-43
2021/10/05 10:17:08;;;;;;;5.30;1.10;;;;;;;14.31;72.85;100147.56;5032531;28;20453;-43
2021/10/05 10:19:36;;;;;;;5.68;1.33;;;;;;;14.30;73.21;100150.47;5033074;28;20034;-44
2021/10/05 10:22:08;;;;;;;;;;;;;;;14.34;73.22;100144.41;5033654;28;20075;-42
2021/10/05 10:24:50;;;;;;;3.95;1.40;;;;;;;14.34;74.54;100143.56;5034719;28;19916;-43
2021/10/05 10:27:16;;;;;;;8.60;1.42;;;;;;;14.15;75.82;100142.72;5033434;28;20036;-43
2021/10/05 10:29:41;;;;;;;10.88;1.52;;;;;;;14.05;75.84;100144.03;5034470;28;20049;-44
2021/10/05 10:32:18;;;;;;;6.00;1.27;;;;;;;13.94;77.15;100130.41;5034471;28;20032;-43
2021/10/05 10:34:45;;;;;;;5.85;1.40;;;;;;;13.93;77.11;100135.00;5038924;28;20092;-43
2021/10/05 10:37:14;;;;;;;6.32;2.17;;;;;;;13.93;77.88;100135.00;5033865;28;20033;-42
2021/10/05 10:39:39;;;;;;;10.93;1.77;;;;;;;13.92;78.72;100138.75;5034182;28;20029;-45
2021/10/05 10:42:06;;;;;;;9.15;1.80;;;;;;;13.94;79.54;100138.53;5033827;28;20441;-44
2021/10/05 10:44:40;;;;;;;9.88;1.90;;;;;;;13.87;80.58;100132.34;5030620;28;20037;-44
2021/10/05 10:47:14;;;;;;;9.40;1.80;;;;;;;13.76;79.77;100121.19;5032785;28;20167;-44
2021/10/05 10:49:40;;;;;;;5.70;1.58;;;;;;;13.76;79.98;100123.91;5033263;28;20095;-45
2021/10/05 10:52:06;;;;;;;4.85;1.40;;;;;;;13.60;81.21;100124.44;5033707;28;20032;-42
2021/10/05 10:54:31;;;;;;;7.10;1.45;;;;;;;13.52;81.21;100122.00;5032414;28;20034;-40
2021/10/05 10:57:08;;;;;;;8.73;1.50;;;;;;;13.49;82.38;100117.88;5032956;28;20032;-41
2021/10/05 10:59:34;;;;;;;6.67;1.83;;;;;;;13.45;82.05;100121.22;5035281;28;20030;-42
2021/10/05 11:02:01;;;;;;;11.40;1.92;;;;;;;13.43;82.91;100117.91;5020479;28;20028;-44
2021/10/05 11:04:27;;;;;;;5.30;1.70;;;;;;;13.29;83.92;100119.88;5032541;28;20365;-47
2021/10/05 11:06:53;;;;;;;13.45;2.17;;;;;;;13.18;84.98;100113.25;5033367;28;20022;-44
2021/10/05 11:09:20;;;;;;;9.25;2.03;;;;;;;13.12;85.18;100116.81;5033580;28;20022;-46
2021/10/05 11:11:57;;;;;;;4.07;1.55;;;;;;;13.04;85.84;100117.91;5032213;28;20025;-43
2021/10/05 11:14:34;;;;;;;5.03;1.63;;;;;;;12.94;86.04;100117.53;5032020;28;20033;-45
2021/10/05 11:17:04;;;;;;;5.47;1.80;;;;;;;12.87;87.77;100114.84;5032884;28;20037;-44
2021/10/05 11:19:31;;;;;;;6.97;2.15;;;;;;;12.80;87.55;100114.06;5033619;28;20083;-44
2021/10/05 11:21:58;;;;;;;5.85;1.90;;;;;;;12.76;87.70;100106.59;5031920;28;20034;-43